createdAt,value
2018-09-09T00:00:27.009Z,94.40
2018-09-09T00:02:55.467Z,94.40
2018-09-09T00:05:23.899Z,94.30
2018-09-09T00:07:52.322Z,94.40
2018-09-09T00:10:20.775Z,94.40
2018-09-09T00:12:49.216Z,94.30
2018-09-09T00:15:17.653Z,94.40
2018-09-09T00:17:46.103Z,94.40
2018-09-09T00:20:14.531Z,94.50
2018-09-09T00:22:42.975Z,94.50
2018-09-09T00:25:11.449Z,94.50
2018-09-09T00:27:39.906Z,94.50
2018-09-09T00:30:08.384Z,94.50
2018-09-09T00:32:36.828Z,94.50
2018-09-09T00:35:05.334Z,94.50
2018-09-09T00:37:33.746Z,94.60
2018-09-09T00:40:02.174Z,94.60
2018-09-09T00:42:30.612Z,94.70
2018-09-09T00:44:59.026Z,94.70
2018-09-09T00:47:27.477Z,94.70
2018-09-09T00:50:01.167Z,94.70
2018-09-09T00:52:34.966Z,94.60
2018-09-09T00:55:03.398Z,94.70
2018-09-09T00:57:31.854Z,94.70
2018-09-09T01:00:00.286Z,94.70
2018-09-09T01:02:28.706Z,94.70
2018-09-09T01:04:57.150Z,94.70
2018-09-09T01:07:25.594Z,94.70
2018-09-09T01:09:54.042Z,94.80
2018-09-09T01:12:22.457Z,94.70
2018-09-09T01:14:50.902Z,94.60
2018-09-09T01:17:19.351Z,94.70
2018-09-09T01:19:47.819Z,94.70
2018-09-09T01:22:16.241Z,94.70
2018-09-09T01:24:44.681Z,94.80
2018-09-09T01:27:13.099Z,94.90
2018-09-09T01:29:41.519Z,95.00
2018-09-09T01:32:09.961Z,95.20
2018-09-09T01:34:38.383Z,95.20
2018-09-09T01:37:06.815Z,95.20
2018-09-09T01:39:35.269Z,95.20
2018-09-09T01:42:03.684Z,95.10
2018-09-09T01:44:32.089Z,95.20
2018-09-09T01:47:00.549Z,95.20
2018-09-09T01:49:28.991Z,95.20
2018-09-09T01:51:57.419Z,95.30
2018-09-09T01:54:25.826Z,95.50
2018-09-09T01:56:54.247Z,95.50
2018-09-09T01:59:22.697Z,95.60
2018-09-09T02:01:51.140Z,95.60
2018-09-09T02:04:19.598Z,95.60
2018-09-09T02:06:48.036Z,95.70
2018-09-09T02:09:16.808Z,95.70
2018-09-09T02:11:45.278Z,95.70
2018-09-09T02:14:13.704Z,95.70
2018-09-09T02:16:42.206Z,95.60
2018-09-09T02:19:10.622Z,95.40
2018-09-09T02:21:39.074Z,95.30
2018-09-09T02:24:07.534Z,95.70
2018-09-09T02:26:36.001Z,95.50
2018-09-09T02:29:04.416Z,95.60
2018-09-09T02:31:32.877Z,95.60
2018-09-09T02:34:01.316Z,95.50
2018-09-09T02:36:29.746Z,95.50
2018-09-09T02:38:58.195Z,95.60
2018-09-09T02:41:26.626Z,95.60
2018-09-09T02:43:55.061Z,95.60
2018-09-09T02:46:23.512Z,95.70
2018-09-09T02:48:51.956Z,95.80
2018-09-09T02:51:20.392Z,95.80
2018-09-09T02:53:48.851Z,95.80
2018-09-09T02:56:17.295Z,95.80
2018-09-09T02:58:45.732Z,95.80
2018-09-09T03:01:14.140Z,96.00
2018-09-09T03:03:42.557Z,95.90
2018-09-09T03:06:10.963Z,95.90
2018-09-09T03:08:39.411Z,96.00
2018-09-09T03:11:14.212Z,96.00
2018-09-09T03:13:43.764Z,96.00
2018-09-09T03:16:12.305Z,96.00
2018-09-09T03:18:41.578Z,96.00
2018-09-09T03:21:10.033Z,96.00
2018-09-09T03:23:38.460Z,96.00
2018-09-09T03:26:06.910Z,95.80
2018-09-09T03:28:35.414Z,95.80
2018-09-09T03:31:03.839Z,95.90
2018-09-09T03:33:33.115Z,96.00
2018-09-09T03:36:01.818Z,96.10
2018-09-09T03:38:30.332Z,96.10
2018-09-09T03:40:58.750Z,96.10
2018-09-09T03:43:27.164Z,96.10
2018-09-09T03:45:55.605Z,96.10
2018-09-09T03:48:24.052Z,96.10
2018-09-09T03:50:52.482Z,96.10
2018-09-09T03:53:20.894Z,96.10
2018-09-09T03:55:49.338Z,96.00
2018-09-09T03:58:17.836Z,96.00
2018-09-09T04:00:46.281Z,95.90
2018-09-09T04:03:14.728Z,95.80
2018-09-09T04:05:43.166Z,96.10
2018-09-09T04:08:11.696Z,96.10
2018-09-09T04:10:40.126Z,96.30
2018-09-09T04:13:08.575Z,96.40
2018-09-09T04:15:37.084Z,96.50
2018-09-09T04:18:05.589Z,96.60
2018-09-09T04:20:34.270Z,96.80
2018-09-09T04:23:04.031Z,96.70
2018-09-09T04:25:32.601Z,96.80
2018-09-09T04:28:01.832Z,96.80
2018-09-09T04:30:30.304Z,96.90
2018-09-09T04:32:58.793Z,96.90
2018-09-09T04:35:27.215Z,96.80
2018-09-09T04:37:55.655Z,96.80
2018-09-09T04:40:24.110Z,96.80
2018-09-09T04:42:52.538Z,96.80
2018-09-09T04:45:20.990Z,96.70
2018-09-09T04:47:49.468Z,96.60
2018-09-09T04:50:17.938Z,96.50
2018-09-09T04:52:46.374Z,96.50
2018-09-09T04:55:14.831Z,96.50
2018-09-09T04:57:43.261Z,96.50
2018-09-09T05:00:11.698Z,96.50
2018-09-09T05:02:40.142Z,96.50
2018-09-09T05:05:08.609Z,96.50
2018-09-09T05:07:37.047Z,96.60
2018-09-09T05:10:05.505Z,96.60
2018-09-09T05:12:33.918Z,96.50
2018-09-09T05:15:02.351Z,96.40
2018-09-09T05:17:30.783Z,96.60
2018-09-09T05:19:59.215Z,96.50
2018-09-09T05:22:27.680Z,96.40
2018-09-09T05:24:56.137Z,96.40
2018-09-09T05:27:24.614Z,96.40
2018-09-09T05:29:53.037Z,96.40
2018-09-09T05:32:21.493Z,96.40
2018-09-09T05:34:49.952Z,96.30
2018-09-09T05:37:18.414Z,96.20
2018-09-09T05:39:46.898Z,96.00
2018-09-09T05:42:15.535Z,96.00
2018-09-09T05:44:44.249Z,95.80
2018-09-09T05:47:12.680Z,96.10
2018-09-09T05:49:41.144Z,95.70
2018-09-09T05:52:09.668Z,95.50
2018-09-09T05:54:38.126Z,95.50
2018-09-09T05:57:06.898Z,95.30
2018-09-09T05:59:35.516Z,95.40
2018-09-09T06:02:03.968Z,95.40
2018-09-09T06:04:32.405Z,95.40
2018-09-09T06:07:00.855Z,95.30
2018-09-09T06:09:29.302Z,95.20
2018-09-09T06:12:00.656Z,94.90
2018-09-09T06:14:29.489Z,94.60
2018-09-09T06:16:58.376Z,94.50
2018-09-09T06:19:27.995Z,94.30
2018-09-09T06:21:56.576Z,94.20
2018-09-09T06:24:25.032Z,94.10
2018-09-09T06:26:54.001Z,93.90
2018-09-09T06:29:22.530Z,93.80
2018-09-09T06:31:50.982Z,93.70
2018-09-09T06:34:19.437Z,93.50
2018-09-09T06:36:47.985Z,93.20
2018-09-09T06:39:16.480Z,93.20
2018-09-09T06:41:44.983Z,93.20
2018-09-09T06:44:13.566Z,93.00
2018-09-09T06:46:42.257Z,93.00
2018-09-09T06:49:10.852Z,92.80
2018-09-09T06:51:39.324Z,92.70
2018-09-09T06:54:07.808Z,92.60
2018-09-09T06:56:36.305Z,92.20
2018-09-09T06:59:04.799Z,92.10
2018-09-09T07:01:33.266Z,91.70
2018-09-09T07:04:01.725Z,91.80
2018-09-09T07:06:30.270Z,91.40
2018-09-09T07:08:58.767Z,91.30
2018-09-09T07:11:27.343Z,90.90
2018-09-09T07:13:55.678Z,91.00
2018-09-09T07:16:24.239Z,91.10
2018-09-09T07:18:52.734Z,91.10
2018-09-09T07:21:21.213Z,91.00
2018-09-09T07:23:49.740Z,91.10
2018-09-09T07:26:18.219Z,90.90
2018-09-09T07:28:46.675Z,90.60
2018-09-09T07:31:15.185Z,90.50
2018-09-09T07:33:43.664Z,90.20
2018-09-09T07:36:12.112Z,89.90
2018-09-09T07:38:40.558Z,88.20
2018-09-09T07:41:09.051Z,87.60
2018-09-09T07:43:37.478Z,86.50
2018-09-09T07:46:06.064Z,87.10
2018-09-09T07:48:34.553Z,86.60
2018-09-09T07:51:03.008Z,86.70
2018-09-09T07:53:31.476Z,85.90
2018-09-09T07:56:01.296Z,85.80
2018-09-09T07:58:29.830Z,85.50
2018-09-09T08:00:58.348Z,84.00
2018-09-09T08:03:26.844Z,82.50
2018-09-09T08:05:55.342Z,82.40
2018-09-09T08:08:23.796Z,82.10
2018-09-09T08:10:52.250Z,82.50
2018-09-09T08:13:20.722Z,82.80
2018-09-09T08:15:49.149Z,82.80
2018-09-09T08:18:17.674Z,83.40
2018-09-09T08:20:46.994Z,83.20
2018-09-09T08:23:15.444Z,81.60
2018-09-09T08:25:43.962Z,78.20
2018-09-09T08:28:12.400Z,74.50
2018-09-09T08:30:40.828Z,72.60
2018-09-09T08:33:09.364Z,71.20
2018-09-09T08:35:37.888Z,67.30
2018-09-09T08:38:06.486Z,61.40
2018-09-09T08:40:34.989Z,58.20
2018-09-09T08:43:03.485Z,59.10
2018-09-09T08:45:31.965Z,62.30
2018-09-09T08:48:00.385Z,62.20
2018-09-09T08:50:28.833Z,58.00
2018-09-09T08:52:57.245Z,54.60
2018-09-09T08:55:25.692Z,50.70
2018-09-09T08:57:54.159Z,48.40
2018-09-09T09:00:29.398Z,48.00
2018-09-09T09:02:57.844Z,50.30
2018-09-09T09:05:26.301Z,54.70
2018-09-09T09:07:54.799Z,57.60
2018-09-09T09:10:23.226Z,59.20
2018-09-09T09:12:51.649Z,60.30
2018-09-09T09:15:20.099Z,60.40
2018-09-09T09:17:48.541Z,61.70
2018-09-09T09:20:16.980Z,62.50
2018-09-09T09:22:45.403Z,61.90
2018-09-09T09:25:13.869Z,62.60
2018-09-09T09:27:42.428Z,62.70
2018-09-09T09:30:10.897Z,64.10
2018-09-09T09:32:43.579Z,65.70
2018-09-09T09:35:12.049Z,66.10
2018-09-09T09:37:41.056Z,66.60
2018-09-09T09:40:09.510Z,67.30
2018-09-09T09:42:37.935Z,67.80
2018-09-09T09:45:06.417Z,66.80
2018-09-09T09:47:34.886Z,67.00
2018-09-09T09:50:03.369Z,67.10
2018-09-09T09:52:31.792Z,66.40
2018-09-09T09:55:00.378Z,66.40
2018-09-09T09:57:28.764Z,66.40
2018-09-09T09:59:57.218Z,66.50
2018-09-09T10:02:25.672Z,66.20
2018-09-09T10:04:54.109Z,66.00
2018-09-09T10:07:22.539Z,66.30
2018-09-09T10:09:50.980Z,65.30
2018-09-09T10:12:19.414Z,63.90
2018-09-09T10:14:47.888Z,62.90
2018-09-09T10:17:16.364Z,61.70
2018-09-09T10:19:44.794Z,60.80
2018-09-09T10:22:13.206Z,59.20
2018-09-09T10:24:41.668Z,59.50
2018-09-09T10:27:10.105Z,59.60
2018-09-09T10:29:38.565Z,59.20
2018-09-09T10:32:07.009Z,60.50
2018-09-09T10:34:35.466Z,61.40
2018-09-09T10:37:03.994Z,61.40
2018-09-09T10:39:32.461Z,62.10
2018-09-09T10:42:01.004Z,63.70
2018-09-09T10:44:29.460Z,63.70
2018-09-09T10:46:57.922Z,63.60
2018-09-09T10:49:26.343Z,63.40
2018-09-09T10:51:54.809Z,63.70
2018-09-09T10:54:23.243Z,64.70
2018-09-09T10:56:51.705Z,65.20
2018-09-09T10:59:20.173Z,63.90
2018-09-09T11:01:48.619Z,62.70
2018-09-09T11:04:17.075Z,61.70
2018-09-09T11:06:45.993Z,62.30
2018-09-09T11:09:14.474Z,61.50
2018-09-09T11:11:43.017Z,61.90
2018-09-09T11:14:11.440Z,61.90
2018-09-09T11:16:39.933Z,62.00
2018-09-09T11:19:08.429Z,61.10
2018-09-09T11:21:36.961Z,61.10
2018-09-09T11:24:05.460Z,59.70
2018-09-09T11:26:33.869Z,57.60
2018-09-09T11:29:02.299Z,55.70
2018-09-09T11:31:30.773Z,55.10
2018-09-09T11:33:59.241Z,49.80
2018-09-09T11:36:27.700Z,46.30
2018-09-09T11:38:56.165Z,46.20
2018-09-09T11:41:24.642Z,47.70
2018-09-09T11:43:53.155Z,49.60
2018-09-09T11:46:21.572Z,48.20
2018-09-09T11:48:50.031Z,42.50
2018-09-09T11:51:18.475Z,38.80
2018-09-09T11:53:46.890Z,38.90
2018-09-09T11:56:15.414Z,38.50
2018-09-09T11:58:43.950Z,37.60
2018-09-09T12:01:12.374Z,36.10
2018-09-09T12:03:40.828Z,34.40
2018-09-09T12:06:09.294Z,33.90
2018-09-09T12:08:37.781Z,33.80
2018-09-09T12:11:06.551Z,33.70
2018-09-09T12:13:35.051Z,34.80
2018-09-09T12:16:03.475Z,34.90
2018-09-09T12:18:31.957Z,33.40
2018-09-09T12:21:00.471Z,34.80
2018-09-09T12:23:28.919Z,36.00
2018-09-09T12:25:57.434Z,35.90
2018-09-09T12:28:25.845Z,35.00
2018-09-09T12:30:54.311Z,34.30
2018-09-09T12:33:23.028Z,32.70
2018-09-09T12:35:51.866Z,31.40
2018-09-09T12:38:20.342Z,32.10
2018-09-09T12:40:48.803Z,31.10
2018-09-09T12:43:22.573Z,31.10
2018-09-09T12:45:56.529Z,32.10
2018-09-09T12:48:30.337Z,29.90
2018-09-09T12:50:59.022Z,30.00
2018-09-09T12:53:27.481Z,29.50
2018-09-09T12:55:55.941Z,30.10
2018-09-09T12:58:24.423Z,31.40
2018-09-09T13:00:52.875Z,30.50
2018-09-09T13:03:21.316Z,30.70
2018-09-09T13:05:49.804Z,31.20
2018-09-09T13:08:18.256Z,31.70
2018-09-09T13:10:46.736Z,31.40
2018-09-09T13:13:15.576Z,29.90
2018-09-09T13:15:44.078Z,30.10
2018-09-09T13:18:12.500Z,30.40
2018-09-09T13:20:41.002Z,29.40
2018-09-09T13:23:09.469Z,29.90
2018-09-09T13:25:37.954Z,30.90
2018-09-09T13:28:06.512Z,31.80
2018-09-09T13:30:35.220Z,31.30
2018-09-09T13:33:03.693Z,31.00
2018-09-09T13:35:32.125Z,31.40
2018-09-09T13:38:00.566Z,30.80
2018-09-09T13:40:29.014Z,31.20
2018-09-09T13:42:57.478Z,31.80
2018-09-09T13:45:26.013Z,31.20
2018-09-09T13:47:54.479Z,30.80
2018-09-09T13:50:22.934Z,31.40
2018-09-09T13:52:51.402Z,31.10
2018-09-09T13:55:19.880Z,30.70
2018-09-09T13:57:48.328Z,29.90
2018-09-09T14:00:16.756Z,29.90
2018-09-09T14:02:45.220Z,29.80
2018-09-09T14:05:13.754Z,30.80
2018-09-09T14:07:42.223Z,30.70
2018-09-09T14:10:10.670Z,30.00
2018-09-09T14:12:39.144Z,30.10
2018-09-09T14:15:08.118Z,30.90
2018-09-09T14:17:36.857Z,32.20
2018-09-09T14:20:05.358Z,33.10
2018-09-09T14:22:33.857Z,33.50
2018-09-09T14:25:02.253Z,33.90
2018-09-09T14:27:30.693Z,33.40
2018-09-09T14:29:59.125Z,33.80
2018-09-09T14:32:27.592Z,34.60
2018-09-09T14:34:56.016Z,35.00
2018-09-09T14:37:24.524Z,35.40
2018-09-09T14:39:52.959Z,34.70
2018-09-09T14:42:21.490Z,34.20
2018-09-09T14:44:49.944Z,36.60
2018-09-09T14:47:18.422Z,38.90
2018-09-09T14:49:46.879Z,38.40
2018-09-09T14:52:15.348Z,37.50
2018-09-09T14:54:43.911Z,37.20
2018-09-09T14:57:12.378Z,35.80
2018-09-09T14:59:40.828Z,36.00
2018-09-09T15:02:09.306Z,36.00
2018-09-09T15:04:37.790Z,34.70
2018-09-09T15:07:06.279Z,35.50
2018-09-09T15:09:34.770Z,35.50
2018-09-09T15:12:03.398Z,35.30
2018-09-09T15:14:31.852Z,33.80
2018-09-09T15:17:00.416Z,34.10
2018-09-09T15:19:28.954Z,34.60
2018-09-09T15:21:57.515Z,33.40
2018-09-09T15:24:26.157Z,32.90
2018-09-09T15:26:54.789Z,33.90
2018-09-09T15:29:23.329Z,34.20
2018-09-09T15:31:51.782Z,35.10
2018-09-09T15:34:20.459Z,38.30
2018-09-09T15:36:48.901Z,39.70
2018-09-09T15:39:17.374Z,40.70
2018-09-09T15:41:45.845Z,41.40
2018-09-09T15:44:14.353Z,42.30
2018-09-09T15:46:42.889Z,43.00
2018-09-09T15:49:11.419Z,43.50
2018-09-09T15:51:39.903Z,43.90
2018-09-09T15:54:08.385Z,44.80
2018-09-09T15:56:36.916Z,44.80
2018-09-09T15:59:05.392Z,44.90
2018-09-09T16:01:33.919Z,45.20
2018-09-09T16:04:02.432Z,45.50
2018-09-09T16:06:30.945Z,45.50
2018-09-09T16:08:59.449Z,45.60
2018-09-09T16:11:27.967Z,46.20
2018-09-09T16:13:56.554Z,46.40
2018-09-09T16:16:25.050Z,47.20
2018-09-09T16:18:53.489Z,47.30
2018-09-09T16:21:21.928Z,47.50
2018-09-09T16:23:50.385Z,47.90
2018-09-09T16:26:18.880Z,48.70
2018-09-09T16:28:47.494Z,48.90
2018-09-09T16:31:15.992Z,50.40
2018-09-09T16:33:44.469Z,50.10
2018-09-09T16:36:13.028Z,50.40
2018-09-09T16:38:41.696Z,50.40
2018-09-09T16:41:10.207Z,50.80
2018-09-09T16:43:38.766Z,51.20
2018-09-09T16:46:07.254Z,51.50
2018-09-09T16:48:36.041Z,52.00
2018-09-09T16:51:04.902Z,51.50
2018-09-09T16:53:33.398Z,52.00
2018-09-09T16:56:01.890Z,52.00
2018-09-09T16:58:30.379Z,52.60
2018-09-09T17:00:58.826Z,52.40
2018-09-09T17:03:27.992Z,52.80
2018-09-09T17:05:56.634Z,53.70
2018-09-09T17:08:25.288Z,54.50
2018-09-09T17:10:54.301Z,55.00
2018-09-09T17:13:22.916Z,55.90
2018-09-09T17:15:51.549Z,56.20
2018-09-09T17:18:20.144Z,56.40
2018-09-09T17:20:48.853Z,56.90
2018-09-09T17:23:17.368Z,57.40
2018-09-09T17:28:34.324Z,58.60
2018-09-09T17:31:03.405Z,59.50
2018-09-09T17:33:32.672Z,60.20
2018-09-09T17:36:01.796Z,60.80
2018-09-09T17:38:33.019Z,61.30
2018-09-09T17:41:01.559Z,61.90
2018-09-09T17:43:30.000Z,62.20
2018-09-09T17:45:58.457Z,61.90
2018-09-09T17:48:26.937Z,62.30
2018-09-09T17:50:55.391Z,62.30
2018-09-09T17:53:23.882Z,62.40
2018-09-09T17:55:52.338Z,62.40
2018-09-09T17:58:20.785Z,62.70
2018-09-09T18:00:49.333Z,63.20
2018-09-09T18:03:17.803Z,63.60
2018-09-09T18:05:46.395Z,64.20
2018-09-09T18:08:14.867Z,64.60
2018-09-09T18:10:43.395Z,65.10
2018-09-09T18:13:11.893Z,65.60
2018-09-09T18:15:40.379Z,66.10
2018-09-09T18:18:08.883Z,66.60
2018-09-09T18:20:37.515Z,67.20
2018-09-09T18:23:05.971Z,67.70
2018-09-09T18:25:34.470Z,68.70
2018-09-09T18:28:02.946Z,69.50
2018-09-09T18:30:31.404Z,70.40
2018-09-09T18:33:00.598Z,71.10
2018-09-09T18:35:29.077Z,71.90
2018-09-09T18:37:57.598Z,72.50
2018-09-09T18:40:26.075Z,73.30
2018-09-09T18:42:54.796Z,73.90
2018-09-09T18:45:23.276Z,74.60
2018-09-09T18:47:51.692Z,75.00
2018-09-09T18:50:20.150Z,75.20
2018-09-09T18:52:48.613Z,75.60
2018-09-09T18:55:17.079Z,76.10
2018-09-09T18:57:45.554Z,76.70
2018-09-09T19:00:14.093Z,77.20
2018-09-09T19:02:42.566Z,77.50
2018-09-09T19:05:11.036Z,78.00
2018-09-09T19:07:39.496Z,78.20
2018-09-09T19:10:08.016Z,79.00
2018-09-09T19:12:36.485Z,79.30
2018-09-09T19:15:05.399Z,79.80
2018-09-09T19:17:33.950Z,80.40
2018-09-09T19:20:02.377Z,80.70
2018-09-09T19:22:30.898Z,81.10
2018-09-09T19:24:59.326Z,82.50
2018-09-09T19:27:27.808Z,82.20
2018-09-09T19:29:56.310Z,82.60
2018-09-09T19:32:24.806Z,82.80
2018-09-09T19:34:53.507Z,82.30
2018-09-09T19:37:21.989Z,82.10
2018-09-09T19:39:50.483Z,82.10
2018-09-09T19:42:18.958Z,81.90
2018-09-09T19:44:47.407Z,81.50
2018-09-09T19:47:15.917Z,81.60
2018-09-09T19:49:44.460Z,81.70
2018-09-09T19:52:12.916Z,82.00
2018-09-09T19:54:41.431Z,81.70
2018-09-09T19:57:09.903Z,81.90
2018-09-09T19:59:38.403Z,81.60
2018-09-09T20:02:06.882Z,82.10
2018-09-09T20:04:35.370Z,82.40
2018-09-09T20:07:03.805Z,82.60
2018-09-09T20:09:32.268Z,83.10
2018-09-09T20:12:01.079Z,83.20
2018-09-09T20:14:29.550Z,83.50
2018-09-09T20:16:58.127Z,83.70
2018-09-09T20:19:26.582Z,83.90
2018-09-09T20:21:55.030Z,84.20
2018-09-09T20:24:23.482Z,84.40
2018-09-09T20:26:51.994Z,84.70
2018-09-09T20:29:20.490Z,84.70
2018-09-09T20:31:49.044Z,85.20
2018-09-09T20:34:17.558Z,85.20
2018-09-09T20:36:46.044Z,85.20
2018-09-09T20:39:14.486Z,85.40
2018-09-09T20:41:43.041Z,85.70
2018-09-09T20:44:11.519Z,86.20
2018-09-09T20:46:40.014Z,86.50
2018-09-09T20:49:08.483Z,87.40
2018-09-09T20:51:36.972Z,87.20
2018-09-09T20:54:05.434Z,87.50
2018-09-09T20:56:33.935Z,87.80
2018-09-09T20:59:02.379Z,88.30
2018-09-09T21:01:30.813Z,88.70
2018-09-09T21:03:59.265Z,89.00
2018-09-09T21:06:27.719Z,89.80
2018-09-09T21:08:56.169Z,90.10
2018-09-09T21:11:24.613Z,90.30
2018-09-09T21:13:53.067Z,90.80
2018-09-09T21:16:21.552Z,90.60
2018-09-09T21:18:49.983Z,91.20
2018-09-09T21:21:18.459Z,90.90
2018-09-09T21:23:46.893Z,90.90
2018-09-09T21:26:15.458Z,90.90
2018-09-09T21:28:43.851Z,91.40
2018-09-09T21:31:12.318Z,91.30
2018-09-09T21:33:40.786Z,91.20
2018-09-09T21:36:09.214Z,91.30
2018-09-09T21:38:37.888Z,91.30
2018-09-09T21:41:06.367Z,91.40
2018-09-09T21:43:34.792Z,91.40
2018-09-09T21:46:03.262Z,91.30
2018-09-09T21:48:31.696Z,91.20
2018-09-09T21:51:00.192Z,91.20
2018-09-09T21:53:28.680Z,91.20
2018-09-09T21:55:57.155Z,91.30
2018-09-09T21:58:25.564Z,91.30
2018-09-09T22:00:59.412Z,91.40
2018-09-09T22:03:27.859Z,91.30
2018-09-09T22:05:57.134Z,91.70
2018-09-09T22:08:25.708Z,91.40
2018-09-09T22:10:54.114Z,91.50
2018-09-09T22:13:22.580Z,91.60
2018-09-09T22:15:51.032Z,91.70
2018-09-09T22:18:19.468Z,92.00
2018-09-09T22:20:48.462Z,92.30
2018-09-09T22:23:16.954Z,92.50
2018-09-09T22:25:45.414Z,92.70
2018-09-09T22:28:13.857Z,92.90
2018-09-09T22:30:42.305Z,93.20
2018-09-09T22:33:10.743Z,93.40
2018-09-09T22:35:39.211Z,93.80
2018-09-09T22:38:07.821Z,93.90
2018-09-09T22:40:36.363Z,94.10
2018-09-09T22:43:05.080Z,94.30
2018-09-09T22:45:33.534Z,94.60
2018-09-09T22:48:02.018Z,94.70
2018-09-09T22:50:30.463Z,94.80
2018-09-09T22:52:58.884Z,95.40
2018-09-09T22:55:27.348Z,95.20
2018-09-09T22:57:55.762Z,95.40
2018-09-09T23:00:24.220Z,95.60
2018-09-09T23:02:52.701Z,95.70
2018-09-09T23:05:21.456Z,96.00
2018-09-09T23:07:49.868Z,96.10
2018-09-09T23:10:18.312Z,96.30
2018-09-09T23:12:46.751Z,96.40
2018-09-09T23:15:15.313Z,96.50
2018-09-09T23:17:43.744Z,96.50
2018-09-09T23:20:12.224Z,96.40
2018-09-09T23:22:40.656Z,96.40
2018-09-09T23:25:09.078Z,96.50
2018-09-09T23:27:37.550Z,96.70
2018-09-09T23:30:06.061Z,96.90
2018-09-09T23:32:34.502Z,97.00
2018-09-09T23:35:02.952Z,97.30
2018-09-09T23:37:31.396Z,97.80
2018-09-09T23:39:59.811Z,97.60
2018-09-09T23:42:28.251Z,97.70
2018-09-09T23:44:56.682Z,97.90
2018-09-09T23:47:25.149Z,98.00
2018-09-09T23:49:53.587Z,98.20
2018-09-09T23:52:22.030Z,98.30
2018-09-09T23:54:50.453Z,98.50
2018-09-09T23:57:18.926Z,98.60
2018-09-09T23:59:47.418Z,98.80
